createdAt,value
2023-04-13T00:01:33.701Z,10.63
2023-04-13T00:04:03.933Z,9.67
2023-04-13T00:06:32.679Z,10.43
2023-04-13T00:09:01.262Z,10.03
2023-04-13T00:11:32.005Z,11.43
2023-04-13T00:14:00.648Z,10.53
2023-04-13T00:16:31.624Z,10.70
2023-04-13T00:19:02.131Z,11.77
2023-04-13T00:21:30.531Z,11.30
2023-04-13T00:23:59.379Z,12.33
2023-04-13T00:26:28.870Z,12.47
2023-04-13T00:28:57.254Z,13.17
2023-04-13T00:31:25.970Z,13.73
2023-04-13T00:33:54.481Z,10.47
2023-04-13T00:36:24.553Z,12.10
2023-04-13T00:38:54.673Z,12.67
2023-04-13T00:41:24.627Z,11.43
2023-04-13T00:43:53.575Z,12.53
2023-04-13T00:46:22.533Z,13.83
2023-04-13T00:48:51.053Z,12.40
2023-04-13T00:51:19.958Z,13.67
2023-04-13T00:53:51.423Z,14.43
2023-04-13T00:56:23.009Z,15.67
2023-04-13T00:58:51.894Z,15.83
2023-04-13T01:01:20.888Z,16.87
2023-04-13T01:03:49.693Z,13.73
2023-04-13T01:06:21.671Z,16.17
2023-04-13T01:08:55.345Z,14.23
2023-04-13T01:11:27.905Z,14.90
2023-04-13T01:13:59.286Z,17.90
2023-04-13T01:16:31.286Z,14.87
2023-04-13T01:18:59.730Z,16.73
2023-04-13T01:21:29.417Z,16.13
2023-04-13T01:24:04.857Z,17.50
2023-04-13T01:26:38.768Z,17.73
2023-04-13T01:29:08.646Z,17.97
2023-04-13T01:31:37.262Z,17.87
2023-04-13T01:34:06.054Z,18.97
2023-04-13T01:36:35.252Z,16.57
2023-04-13T01:39:04.345Z,18.93
2023-04-13T01:41:33.599Z,17.17
2023-04-13T01:44:02.547Z,18.43
2023-04-13T01:46:34.404Z,19.40
2023-04-13T01:49:04.975Z,21.37
2023-04-13T01:51:36.292Z,22.20
2023-04-13T01:54:11.133Z,23.77
2023-04-13T01:56:40.902Z,21.53
2023-04-13T01:59:10.018Z,25.13
2023-04-13T02:01:40.727Z,21.93
2023-04-13T02:04:09.570Z,22.97
2023-04-13T02:06:38.089Z,22.63
2023-04-13T02:09:06.942Z,24.63
2023-04-13T02:11:35.776Z,21.83
2023-04-13T02:14:04.935Z,21.60
2023-04-13T02:16:33.426Z,22.90
2023-04-13T02:19:03.317Z,22.10
2023-04-13T02:21:31.784Z,23.47
2023-04-13T02:24:00.400Z,19.67
2023-04-13T02:26:29.057Z,20.30
2023-04-13T02:28:57.916Z,19.87
2023-04-13T02:31:26.339Z,18.40
2023-04-13T02:33:54.796Z,18.13
2023-04-13T02:36:25.092Z,20.50
2023-04-13T02:38:54.694Z,18.37
2023-04-13T02:41:25.028Z,18.33
2023-04-13T02:43:53.466Z,19.57
2023-04-13T02:46:22.192Z,18.03
2023-04-13T02:48:50.840Z,19.43
2023-04-13T02:51:19.239Z,21.30
2023-04-13T02:53:49.246Z,19.07
2023-04-13T02:56:17.669Z,20.77
2023-04-13T02:58:46.056Z,17.23
2023-04-13T03:01:14.504Z,22.63
2023-04-13T03:03:43.017Z,20.00
2023-04-13T03:06:11.489Z,19.93
2023-04-13T03:08:40.287Z,19.00
2023-04-13T03:11:10.890Z,18.60
2023-04-13T03:13:39.299Z,19.40
2023-04-13T03:16:08.260Z,17.63
2023-04-13T03:18:37.452Z,17.27
2023-04-13T03:21:07.018Z,18.27
2023-04-13T03:23:35.421Z,17.97
2023-04-13T03:26:03.845Z,19.20
2023-04-13T03:28:33.618Z,17.57
2023-04-13T03:31:02.309Z,19.93
2023-04-13T03:33:30.751Z,17.73
2023-04-13T03:35:59.121Z,17.80
2023-04-13T03:38:27.532Z,18.00
2023-04-13T03:40:56.126Z,21.10
2023-04-13T03:43:24.555Z,19.90
2023-04-13T03:45:54.501Z,20.50
2023-04-13T03:48:23.188Z,18.47
2023-04-13T03:50:51.612Z,21.63
2023-04-13T03:53:20.097Z,20.90
2023-04-13T03:55:48.489Z,21.03
2023-04-13T03:58:17.009Z,19.20
2023-04-13T04:00:45.555Z,21.53
2023-04-13T04:03:17.525Z,20.13
2023-04-13T04:05:46.516Z,22.07
2023-04-13T04:08:16.555Z,19.33
2023-04-13T04:10:44.943Z,19.90
2023-04-13T04:13:13.352Z,19.93
2023-04-13T04:15:41.740Z,21.73
2023-04-13T04:18:10.426Z,23.27
2023-04-13T04:20:40.306Z,21.57
2023-04-13T04:23:09.889Z,19.93
2023-04-13T04:25:40.585Z,19.33
2023-04-13T04:28:09.007Z,18.60
2023-04-13T04:30:37.446Z,20.70
2023-04-13T04:33:05.948Z,20.77
2023-04-13T04:35:34.460Z,18.67
2023-04-13T04:38:05.249Z,20.00
2023-04-13T04:40:35.649Z,16.60
2023-04-13T04:43:04.827Z,19.43
2023-04-13T04:45:36.385Z,20.87
2023-04-13T04:48:05.769Z,20.43
2023-04-13T04:50:34.461Z,19.60
2023-04-13T04:53:04.309Z,19.87
2023-04-13T04:55:32.752Z,20.30
2023-04-13T04:58:03.038Z,21.77
2023-04-13T05:00:31.902Z,20.90
2023-04-13T05:03:01.117Z,20.17
2023-04-13T05:05:30.296Z,20.67
2023-04-13T05:07:58.803Z,20.63
2023-04-13T05:10:29.714Z,19.80
2023-04-13T05:12:58.271Z,19.67
2023-04-13T05:15:26.831Z,20.23
2023-04-13T05:17:55.421Z,22.10
2023-04-13T05:20:23.876Z,19.73
2023-04-13T05:22:52.872Z,21.27
2023-04-13T05:25:21.315Z,19.33
2023-04-13T05:27:51.117Z,21.07
2023-04-13T05:30:20.139Z,20.00
2023-04-13T05:32:48.551Z,20.83
2023-04-13T05:35:16.952Z,19.57
2023-04-13T05:37:46.770Z,20.83
2023-04-13T05:40:15.920Z,18.77
2023-04-13T05:42:44.467Z,19.87
2023-04-13T05:45:17.113Z,19.83
2023-04-13T05:47:46.167Z,18.47
2023-04-13T05:50:14.672Z,17.63
2023-04-13T05:52:43.133Z,20.03
2023-04-13T05:55:12.684Z,20.60
2023-04-13T05:57:41.094Z,21.33
2023-04-13T06:00:10.745Z,22.83
2023-04-13T06:02:41.933Z,21.67
2023-04-13T06:05:13.811Z,21.57
2023-04-13T06:07:44.625Z,21.70
2023-04-13T06:10:13.104Z,22.17
2023-04-13T06:12:41.528Z,21.37
2023-04-13T06:15:10.329Z,20.73
2023-04-13T06:17:40.170Z,21.23
2023-04-13T06:20:10.805Z,24.23
2023-04-13T06:22:39.340Z,21.20
2023-04-13T06:25:08.517Z,22.83
2023-04-13T06:27:37.521Z,21.60
2023-04-13T06:30:06.914Z,23.67
2023-04-13T06:32:35.403Z,25.17
2023-04-13T06:35:06.000Z,22.30
2023-04-13T06:37:35.104Z,22.87
2023-04-13T06:40:12.506Z,20.10
2023-04-13T06:42:41.338Z,22.67
2023-04-13T06:45:10.293Z,23.70
2023-04-13T06:47:40.917Z,23.13
2023-04-13T06:50:13.503Z,22.43
2023-04-13T06:52:43.941Z,22.80
2023-04-13T06:55:12.608Z,22.33
2023-04-13T06:57:41.215Z,21.57
2023-04-13T07:00:26.023Z,21.43
2023-04-13T07:02:57.366Z,23.30
2023-04-13T07:05:27.424Z,20.57
2023-04-13T07:07:55.845Z,20.70
2023-04-13T07:10:24.300Z,21.83
2023-04-13T07:12:52.820Z,21.90
2023-04-13T07:15:21.263Z,21.50
2023-04-13T07:17:49.767Z,18.47
2023-04-13T07:20:18.579Z,26.20
2023-04-13T07:22:48.549Z,18.93
2023-04-13T07:25:16.972Z,21.10
2023-04-13T07:27:45.408Z,18.40
2023-04-13T07:30:14.190Z,21.43
2023-04-13T07:32:42.992Z,22.00
2023-04-13T07:35:11.661Z,19.03
2023-04-13T07:37:40.057Z,22.03
2023-04-13T07:40:13.141Z,20.90
2023-04-13T07:42:41.580Z,22.80
2023-04-13T07:45:11.599Z,19.53
2023-04-13T07:47:40.104Z,19.67
2023-04-13T07:50:09.492Z,19.80
2023-04-13T07:52:37.978Z,23.27
2023-04-13T07:55:07.114Z,20.10
2023-04-13T07:57:37.374Z,18.20
2023-04-13T08:00:06.377Z,22.83
2023-04-13T08:02:35.036Z,23.50
2023-04-13T08:05:03.876Z,20.00
2023-04-13T08:07:32.440Z,21.63
2023-04-13T08:10:04.422Z,22.10
2023-04-13T08:12:32.835Z,22.27
2023-04-13T08:15:02.626Z,17.87
2023-04-13T08:17:31.672Z,18.90
2023-04-13T08:20:00.161Z,19.77
2023-04-13T08:22:28.568Z,23.77
2023-04-13T08:24:56.984Z,18.77
2023-04-13T08:27:25.941Z,16.83
2023-04-13T08:29:57.028Z,20.20
2023-04-13T08:32:26.872Z,18.73
2023-04-13T08:34:56.162Z,13.63
2023-04-13T08:37:26.468Z,14.03
2023-04-13T08:39:59.670Z,16.63
2023-04-13T08:42:29.094Z,12.57
2023-04-13T08:44:59.894Z,12.17
2023-04-13T08:47:30.195Z,13.27
2023-04-13T08:49:59.757Z,9.87
2023-04-13T08:52:28.534Z,10.90
2023-04-13T08:54:57.569Z,10.63
2023-04-13T08:57:26.022Z,12.23
2023-04-13T08:59:54.726Z,15.23
2023-04-13T09:02:26.712Z,8.83
2023-04-13T09:04:57.260Z,13.43
2023-04-13T09:07:27.821Z,13.77
2023-04-13T09:09:59.078Z,12.53
2023-04-13T09:12:27.516Z,10.00
2023-04-13T09:14:56.013Z,8.47
2023-04-13T09:17:27.565Z,11.90
2023-04-13T09:19:58.624Z,11.87
2023-04-13T09:22:27.036Z,9.80
2023-04-13T09:24:55.887Z,12.23
2023-04-13T09:27:24.898Z,15.07
2023-04-13T09:29:53.808Z,10.10
2023-04-13T09:32:22.913Z,11.77
2023-04-13T09:35:04.813Z,10.60
2023-04-13T09:37:34.307Z,13.50
2023-04-13T09:40:13.313Z,12.03
2023-04-13T09:42:42.448Z,10.33
2023-04-13T09:45:11.284Z,11.00
2023-04-13T09:47:40.942Z,14.77
2023-04-13T09:50:19.713Z,11.87
2023-04-13T09:52:48.213Z,7.73
2023-04-13T09:55:17.974Z,9.43
2023-04-13T09:57:49.029Z,11.53
2023-04-13T10:00:21.066Z,8.30
2023-04-13T10:02:51.063Z,8.03
2023-04-13T10:05:22.648Z,11.77
2023-04-13T10:07:51.855Z,13.63
2023-04-13T10:10:22.180Z,13.57
2023-04-13T10:12:53.289Z,10.87
2023-04-13T10:15:33.023Z,13.33
2023-04-13T10:18:07.297Z,12.67
2023-04-13T10:20:37.508Z,11.87
2023-04-13T10:23:06.296Z,11.53
2023-04-13T10:25:38.339Z,12.57
2023-04-13T10:28:08.195Z,15.40
2023-04-13T10:30:36.638Z,12.53
2023-04-13T10:33:06.678Z,17.10
2023-04-13T10:35:43.308Z,14.77
2023-04-13T10:38:12.885Z,12.30
2023-04-13T10:40:47.081Z,14.87
2023-04-13T10:43:26.176Z,14.17
2023-04-13T10:46:06.352Z,11.83
2023-04-13T10:48:34.866Z,12.17
2023-04-13T10:51:04.838Z,16.90
2023-04-13T10:53:35.180Z,20.10
2023-04-13T10:56:05.278Z,11.40
2023-04-13T10:58:34.496Z,14.97
2023-04-13T11:01:03.363Z,17.83
2023-04-13T11:03:32.140Z,13.33
2023-04-13T11:06:01.201Z,14.63
2023-04-13T11:08:32.606Z,16.37
2023-04-13T11:11:01.497Z,14.67
2023-04-13T11:13:30.532Z,15.80
2023-04-13T11:16:05.224Z,17.87
2023-04-13T11:18:33.961Z,15.97
2023-04-13T11:21:06.735Z,15.43
2023-04-13T11:23:38.570Z,11.13
2023-04-13T11:26:07.102Z,9.10
2023-04-13T11:28:40.097Z,9.73
2023-04-13T11:31:08.590Z,9.00
2023-04-13T11:33:39.937Z,8.73
2023-04-13T11:36:09.764Z,7.63
2023-04-13T11:38:41.280Z,10.37
2023-04-13T11:43:42.635Z,8.57
2023-04-13T11:46:12.889Z,9.47
2023-04-13T11:48:41.476Z,8.63
2023-04-13T11:51:11.170Z,7.17
2023-04-13T11:53:41.290Z,5.03
2023-04-13T11:56:09.940Z,6.07
2023-04-13T11:58:39.594Z,6.67
2023-04-13T12:03:53.616Z,4.53
2023-04-13T12:06:29.578Z,3.83
2023-04-13T12:09:09.451Z,4.47
2023-04-13T12:11:42.828Z,2.73
2023-04-13T12:17:04.514Z,3.60
2023-04-13T12:19:41.050Z,2.37
2023-04-13T12:22:09.862Z,2.93
2023-04-13T12:24:40.372Z,3.20
2023-04-13T12:27:18.242Z,2.30
2023-04-13T12:29:49.241Z,3.27
2023-04-13T12:32:17.751Z,1.97
2023-04-13T12:34:46.900Z,2.30
2023-04-13T12:37:15.319Z,1.80
2023-04-13T12:39:45.152Z,2.23
2023-04-13T12:42:13.723Z,2.27
2023-04-13T12:44:42.165Z,2.70
2023-04-13T12:47:10.585Z,2.33
2023-04-13T12:49:39.075Z,2.27
2023-04-13T12:52:07.563Z,2.80
2023-04-13T12:54:36.079Z,2.90
2023-04-13T12:57:05.869Z,2.17
2023-04-13T12:59:34.298Z,2.33
2023-04-13T13:02:02.769Z,2.30
2023-04-13T13:04:31.383Z,2.70
2023-04-13T13:07:00.532Z,2.20
2023-04-13T13:09:29.237Z,2.23
2023-04-13T13:11:58.060Z,2.53
2023-04-13T13:14:27.884Z,1.90
2023-04-13T13:16:56.402Z,4.07
2023-04-13T13:19:24.897Z,2.37
2023-04-13T13:21:54.486Z,3.30
2023-04-13T13:24:23.390Z,3.53
2023-04-13T13:27:19.629Z,2.53
2023-04-13T13:29:41.938Z,2.83
2023-04-13T13:32:10.973Z,3.23
2023-04-13T13:34:39.416Z,2.27
2023-04-13T13:37:08.131Z,2.40
2023-04-13T13:39:36.608Z,2.53
2023-04-13T13:42:05.352Z,2.10
2023-04-13T13:44:35.073Z,3.07
2023-04-13T13:47:06.797Z,2.40
2023-04-13T13:49:36.449Z,2.40
2023-04-13T13:52:04.890Z,2.20
2023-04-13T13:54:33.288Z,2.17
2023-04-13T13:57:01.897Z,2.57
2023-04-13T13:59:30.342Z,2.30
2023-04-13T14:01:59.958Z,1.80
2023-04-13T14:04:30.077Z,2.00
2023-04-13T14:06:58.527Z,2.80
2023-04-13T14:09:27.798Z,2.10
2023-04-13T14:11:56.515Z,2.20
2023-04-13T14:14:25.031Z,2.67
2023-04-13T14:16:53.419Z,1.90
2023-04-13T14:19:22.195Z,2.20
2023-04-13T14:21:52.088Z,2.50
2023-04-13T14:24:20.507Z,3.07
2023-04-13T14:26:48.948Z,2.57
2023-04-13T14:29:17.425Z,1.47
2023-04-13T14:31:45.924Z,1.70
2023-04-13T14:34:14.395Z,2.40
2023-04-13T14:36:44.783Z,1.93
2023-04-13T14:39:16.200Z,2.33
2023-04-13T14:41:44.804Z,4.23
2023-04-13T14:44:13.219Z,1.70
2023-04-13T14:46:41.682Z,2.10
2023-04-13T14:49:10.271Z,3.53
2023-04-13T14:51:39.253Z,2.67
2023-04-13T14:54:07.901Z,2.10
2023-04-13T14:56:37.845Z,2.20
2023-04-13T14:59:06.544Z,3.17
2023-04-13T15:01:35.168Z,2.23
2023-04-13T15:04:03.797Z,4.13
2023-04-13T15:06:32.338Z,1.33
2023-04-13T15:09:01.597Z,2.73
2023-04-13T15:11:30.563Z,2.20
2023-04-13T15:14:00.550Z,2.40
2023-04-13T15:16:29.125Z,1.73
2023-04-13T15:18:57.687Z,2.20
2023-04-13T15:21:27.656Z,1.30
2023-04-13T15:23:56.196Z,2.27
2023-04-13T15:26:25.032Z,2.63
2023-04-13T15:28:53.530Z,2.13
2023-04-13T15:31:24.327Z,1.47
2023-04-13T15:33:52.927Z,2.40
2023-04-13T15:36:21.343Z,1.50
2023-04-13T15:38:49.793Z,2.50
2023-04-13T15:41:19.990Z,1.13
2023-04-13T15:43:48.407Z,2.53
2023-04-13T15:46:17.855Z,3.30
2023-04-13T15:48:49.464Z,1.30
2023-04-13T15:51:17.953Z,1.37
2023-04-13T15:53:46.362Z,1.30
2023-04-13T15:56:14.823Z,2.57
2023-04-13T15:58:43.244Z,2.27
2023-04-13T16:01:13.066Z,1.13
2023-04-13T16:03:42.321Z,1.43
2023-04-13T16:06:12.319Z,1.40
2023-04-13T16:08:40.771Z,1.50
2023-04-13T16:11:09.163Z,1.90
2023-04-13T16:16:14.491Z,1.83
2023-04-13T16:18:43.338Z,1.40
2023-04-13T16:21:13.221Z,2.43
2023-04-13T16:23:42.682Z,1.37
2023-04-13T16:26:11.151Z,2.27
2023-04-13T16:28:40.555Z,2.43
2023-04-13T16:31:11.249Z,2.20
2023-04-13T16:33:39.758Z,1.60
2023-04-13T16:36:08.600Z,1.50
2023-04-13T16:38:38.400Z,3.47
2023-04-13T16:41:06.956Z,1.27
2023-04-13T16:43:35.589Z,1.30
2023-04-13T16:46:04.076Z,1.70
2023-04-13T16:48:32.594Z,1.60
2023-04-13T16:51:01.605Z,1.37
2023-04-13T16:53:30.220Z,1.67
2023-04-13T16:56:00.084Z,1.70
2023-04-13T16:58:28.503Z,1.60
2023-04-13T17:00:57.469Z,3.07
2023-04-13T17:03:26.186Z,1.60
2023-04-13T17:05:55.504Z,1.83
2023-04-13T17:08:24.558Z,2.00
2023-04-13T17:10:53.283Z,1.70
2023-04-13T17:13:23.151Z,2.50
2023-04-13T17:15:51.855Z,2.37
2023-04-13T17:18:20.308Z,3.30
2023-04-13T17:20:54.786Z,1.70
2023-04-13T17:23:23.746Z,1.77
2023-04-13T17:25:53.871Z,1.57
2023-04-13T17:28:25.484Z,1.40
2023-04-13T17:30:54.008Z,1.40
2023-04-13T17:33:24.298Z,1.60
2023-04-13T17:35:54.705Z,1.50
2023-04-13T17:38:23.184Z,1.57
2023-04-13T17:40:52.154Z,1.73
2023-04-13T17:43:20.727Z,1.50
2023-04-13T17:45:50.542Z,1.40
2023-04-13T17:48:18.987Z,1.63
2023-04-13T17:50:47.707Z,1.50
2023-04-13T17:53:16.125Z,1.30
2023-04-13T17:55:44.572Z,1.87
2023-04-13T17:58:12.992Z,1.30
2023-04-13T18:00:41.434Z,1.60
2023-04-13T18:03:11.781Z,1.67
2023-04-13T18:05:44.403Z,1.50
2023-04-13T18:08:12.951Z,1.53
2023-04-13T18:10:41.455Z,1.60
2023-04-13T18:13:09.889Z,1.70
2023-04-13T18:15:38.439Z,1.30
2023-04-13T18:18:07.586Z,1.50
2023-04-13T18:20:37.481Z,1.50
2023-04-13T18:23:06.041Z,1.67
2023-04-13T18:25:34.505Z,1.30
2023-04-13T18:28:02.904Z,1.50
2023-04-13T18:30:31.294Z,1.60
2023-04-13T18:32:59.750Z,1.80
2023-04-13T18:35:28.638Z,1.70
2023-04-13T18:37:58.407Z,1.70
2023-04-13T18:40:26.936Z,1.60
2023-04-13T18:42:57.351Z,1.80
2023-04-13T18:45:25.757Z,1.97
2023-04-13T18:47:54.206Z,1.87
2023-04-13T18:50:22.649Z,2.47
2023-04-13T18:52:51.147Z,1.70
2023-04-13T18:55:21.094Z,2.10
2023-04-13T18:57:49.817Z,2.43
2023-04-13T19:00:18.547Z,2.80
2023-04-13T19:02:49.338Z,2.10
2023-04-13T19:05:18.421Z,2.20
2023-04-13T19:07:57.198Z,2.27
2023-04-13T19:10:28.099Z,4.40
2023-04-13T19:12:56.975Z,2.40
2023-04-13T19:15:25.480Z,2.30
2023-04-13T19:17:54.161Z,2.70
2023-04-13T19:20:23.433Z,2.60
2023-04-13T19:22:52.714Z,2.43
2023-04-13T19:25:21.229Z,2.50
2023-04-13T19:27:51.085Z,2.20
2023-04-13T19:30:20.068Z,2.60
2023-04-13T19:32:49.312Z,2.40
2023-04-13T19:35:18.545Z,2.83
2023-04-13T19:37:46.977Z,2.80
2023-04-13T19:40:15.598Z,4.17
2023-04-13T19:42:45.518Z,2.60
2023-04-13T19:45:16.153Z,2.93
2023-04-13T19:47:44.680Z,2.57
2023-04-13T19:50:14.909Z,3.40
2023-04-13T19:52:47.100Z,3.40
2023-04-13T19:55:15.612Z,2.30
2023-04-13T19:57:43.996Z,2.40
2023-04-13T20:00:19.316Z,2.40
2023-04-13T20:02:50.883Z,3.30
2023-04-13T20:05:21.114Z,2.70
2023-04-13T20:07:49.875Z,3.40
2023-04-13T20:10:18.446Z,1.93
2023-04-13T20:12:46.869Z,2.40
2023-04-13T20:15:15.478Z,3.23
2023-04-13T20:17:43.998Z,2.23
2023-04-13T20:20:14.232Z,2.40
2023-04-13T20:22:42.804Z,2.93
2023-04-13T20:25:11.376Z,2.30
2023-04-13T20:27:41.890Z,2.50
2023-04-13T20:30:11.053Z,2.40
2023-04-13T20:32:39.780Z,2.40
2023-04-13T20:35:09.143Z,2.60
2023-04-13T20:37:38.954Z,2.43
2023-04-13T20:40:10.530Z,3.27
2023-04-13T20:42:41.884Z,2.50
2023-04-13T20:45:12.679Z,3.10
2023-04-13T20:47:42.461Z,4.13
2023-04-13T20:50:12.119Z,3.23
2023-04-13T20:52:42.734Z,2.63
2023-04-13T20:55:11.724Z,2.50
2023-04-13T20:57:42.043Z,3.17
2023-04-13T21:00:15.475Z,2.50
2023-04-13T21:02:44.695Z,3.17
2023-04-13T21:05:13.214Z,4.17
2023-04-13T21:07:43.555Z,3.30
2023-04-13T21:10:12.793Z,3.50
2023-04-13T21:12:41.182Z,3.20
2023-04-13T21:15:10.380Z,3.73
2023-04-13T21:17:38.855Z,2.77
2023-04-13T21:20:09.116Z,5.17
2023-04-13T21:22:37.689Z,2.80
2023-04-13T21:25:08.001Z,2.50
2023-04-13T21:27:36.374Z,2.67
2023-04-13T21:30:04.814Z,2.50
2023-04-13T21:32:33.276Z,3.13
2023-04-13T21:35:01.698Z,2.57
2023-04-13T21:37:30.451Z,1.97
2023-04-13T21:39:59.927Z,2.40
2023-04-13T21:42:29.739Z,4.47
2023-04-13T21:44:58.156Z,2.40
2023-04-13T21:47:28.022Z,2.63
2023-04-13T21:49:57.425Z,2.47
2023-04-13T21:52:25.848Z,2.33
2023-04-13T21:54:54.492Z,2.10
2023-04-13T21:57:22.917Z,1.90
2023-04-13T21:59:52.698Z,2.10
2023-04-13T22:02:21.359Z,1.80
2023-04-13T22:04:49.911Z,2.03
2023-04-13T22:07:22.042Z,1.90
2023-04-13T22:09:54.918Z,1.80
2023-04-13T22:12:23.621Z,2.10
2023-04-13T22:14:54.358Z,2.13
2023-04-13T22:17:22.747Z,1.80
2023-04-13T22:19:51.194Z,2.27
2023-04-13T22:22:19.607Z,2.67
2023-04-13T22:24:48.028Z,3.20
2023-04-13T22:27:16.466Z,1.90
2023-04-13T22:29:44.895Z,2.03
2023-04-13T22:32:15.027Z,1.80
2023-04-13T22:34:43.509Z,1.80
2023-04-13T22:37:15.095Z,2.07
2023-04-13T22:39:44.795Z,2.87
2023-04-13T22:42:13.559Z,1.80
2023-04-13T22:44:41.939Z,1.70
2023-04-13T22:47:10.356Z,1.67
2023-04-13T22:49:40.402Z,1.63
2023-04-13T22:52:08.971Z,1.97
2023-04-13T22:54:37.376Z,1.70
2023-04-13T22:57:05.938Z,1.60
2023-04-13T22:59:34.322Z,1.70
2023-04-13T23:02:03.883Z,1.47
2023-04-13T23:04:32.574Z,1.50
2023-04-13T23:07:02.577Z,1.97
2023-04-13T23:09:31.043Z,1.40
2023-04-13T23:11:59.868Z,1.73
2023-04-13T23:14:28.309Z,1.40
2023-04-13T23:16:57.004Z,1.50
2023-04-13T23:19:25.410Z,1.50
2023-04-13T23:21:53.827Z,1.30
2023-04-13T23:24:23.633Z,1.40
2023-04-13T23:26:52.065Z,1.33
2023-04-13T23:29:22.110Z,1.27
2023-04-13T23:31:50.818Z,1.40
2023-04-13T23:34:19.260Z,1.33
2023-04-13T23:36:47.680Z,1.50
2023-04-13T23:39:17.117Z,1.43
2023-04-13T23:41:47.471Z,1.60
2023-04-13T23:44:16.386Z,1.60
2023-04-13T23:46:44.829Z,2.23
2023-04-13T23:49:13.295Z,1.50
2023-04-13T23:51:42.348Z,1.77
2023-04-13T23:54:12.678Z,1.47
2023-04-13T23:56:41.135Z,1.50
2023-04-13T23:59:10.930Z,1.27
